Time;durP1;ratioP1;P1;durP2;ratioP2;P2;SDS_P1;SDS_P2;PMS_P1;PMS_P2;Temp;Humidity;BMP_temperature;BMP_pressure;BME280_temperature;BME280_humidity;BME280_pressure;Samples;Min_cycle;Max_cycle;Signal;HPM_P1;HPM_P2
2022/07/04 00:01:49;;;;;;;6.05;3.28;;;;;;;15.84;68.77;101219.31;5084583;28;20079;-81
2022/07/04 00:04:15;;;;;;;6.60;3.20;;;;;;;15.85;68.88;101223.59;5084420;28;20110;-81
2022/07/04 00:06:42;;;;;;;4.78;3.50;;;;;;;15.81;69.22;101232.84;5083752;28;20112;-81
2022/07/04 00:09:09;;;;;;;5.65;3.20;;;;;;;15.84;68.96;101231.69;5083654;28;20090;-81
2022/07/04 00:11:35;;;;;;;5.68;3.15;;;;;;;15.74;69.31;101221.34;5083656;28;20078;-81
2022/07/04 00:14:02;;;;;;;5.47;3.22;;;;;;;15.73;69.63;101226.81;5084339;28;20059;-82
2022/07/04 00:16:29;;;;;;;3.55;3.05;;;;;;;15.65;69.76;101238.22;5084764;28;20052;-83
2022/07/04 00:18:57;;;;;;;4.40;3.10;;;;;;;15.63;70.07;101237.59;5083514;28;20059;-82
2022/07/04 00:21:24;;;;;;;5.88;3.30;;;;;;;15.58;70.36;101242.59;5082772;28;20074;-82
2022/07/04 00:23:50;;;;;;;5.72;3.30;;;;;;;15.49;70.81;101236.50;5082457;28;20084;-82
2022/07/04 00:26:17;;;;;;;3.53;3.08;;;;;;;15.37;71.49;101248.44;5082303;28;20107;-84
2022/07/04 00:28:44;;;;;;;4.15;3.05;;;;;;;15.30;71.32;101228.19;5082291;28;20078;-82
2022/07/04 00:31:11;;;;;;;9.30;4.05;;;;;;;15.28;71.67;101226.53;5082123;28;20139;-82
2022/07/04 00:33:37;;;;;;;5.45;3.15;;;;;;;15.16;72.05;101235.00;5082425;28;20079;-82
2022/07/04 00:36:06;;;;;;;7.10;3.53;;;;;;;15.09;72.34;101228.78;5082430;28;20094;-82
2022/07/04 00:38:32;;;;;;;5.78;3.53;;;;;;;15.01;72.51;101229.63;5082008;28;20087;-83
2022/07/04 00:40:59;;;;;;;6.82;3.33;;;;;;;15.06;72.39;101226.50;5082462;28;20072;-82
2022/07/04 00:43:28;;;;;;;10.45;3.50;;;;;;;15.02;72.65;101227.81;5083107;28;20101;-82
2022/07/04 00:45:55;;;;;;;5.85;3.70;;;;;;;15.00;72.45;101222.72;5083468;28;20083;-82
2022/07/04 00:48:22;;;;;;;7.15;3.30;;;;;;;15.08;72.00;101219.22;5082655;28;20049;-83
2022/07/04 00:50:49;;;;;;;8.65;3.50;;;;;;;15.07;71.81;101217.59;5083406;28;20080;-84
2022/07/04 00:53:19;;;;;;;5.93;3.25;;;;;;;15.00;72.14;101209.53;5083165;28;20049;-82
2022/07/04 00:55:46;;;;;;;4.15;3.03;;;;;;;15.06;71.75;101218.59;5082552;28;20075;-82
2022/07/04 00:58:14;;;;;;;7.13;3.40;;;;;;;15.01;72.12;101215.63;5082324;28;20083;-83
2022/07/04 01:00:42;;;;;;;6.88;3.17;;;;;;;14.95;71.94;101206.59;5082748;28;20044;-81
2022/07/04 01:03:08;;;;;;;8.63;3.42;;;;;;;14.93;72.29;101208.56;5081871;28;20048;-80
2022/07/04 01:05:35;;;;;;;7.55;3.30;;;;;;;14.88;72.54;101210.91;5082822;28;20546;-81
2022/07/04 01:08:02;;;;;;;5.25;3.40;;;;;;;14.79;73.22;101207.47;5082442;28;20113;-82
2022/07/04 01:10:30;;;;;;;7.07;3.35;;;;;;;14.77;73.12;101219.97;5082594;28;20143;-82
2022/07/04 01:12:57;;;;;;;8.15;3.67;;;;;;;14.75;73.01;101206.16;5083025;28;20060;-81
2022/07/04 01:15:23;;;;;;;7.93;3.28;;;;;;;14.72;73.32;101209.13;5083420;28;20068;-83
2022/07/04 01:17:50;;;;;;;9.02;3.70;;;;;;;14.71;73.24;101204.84;5083275;28;20063;-80
2022/07/04 01:20:18;;;;;;;6.60;3.40;;;;;;;14.70;73.56;101210.28;5083134;28;20068;-84
2022/07/04 01:22:45;;;;;;;6.85;3.50;;;;;;;14.69;73.30;101220.00;5084409;28;20048;-82
2022/07/04 01:25:13;;;;;;;10.20;3.38;;;;;;;14.61;73.77;101209.50;5083314;28;20052;-82
2022/07/04 01:27:40;;;;;;;5.85;3.15;;;;;;;14.58;74.01;101209.84;5085268;28;20048;-83
2022/07/04 01:30:08;;;;;;;6.32;3.50;;;;;;;14.47;74.45;101211.00;5083509;28;20493;-82
2022/07/04 01:32:34;;;;;;;7.82;3.42;;;;;;;14.40;74.86;101219.69;5083208;28;20076;-82
2022/07/04 01:35:01;;;;;;;8.68;4.03;;;;;;;14.39;74.89;101210.97;5083289;28;20402;-82
2022/07/04 01:37:29;;;;;;;9.77;3.63;;;;;;;14.36;74.91;101216.56;5084544;28;20048;-82
2022/07/04 01:39:56;;;;;;;7.53;3.50;;;;;;;14.31;75.04;101212.78;5083303;28;20048;-81
2022/07/04 01:42:22;;;;;;;8.93;3.45;;;;;;;14.35;75.31;101214.94;5084229;28;20044;-82
2022/07/04 01:44:49;;;;;;;6.60;3.50;;;;;;;14.25;75.50;101215.09;5084604;28;20076;-81
2022/07/04 01:47:16;;;;;;;11.15;3.67;;;;;;;14.18;75.71;101210.66;5084216;28;20072;-82
2022/07/04 01:49:42;;;;;;;6.93;3.58;;;;;;;14.13;75.79;101221.72;5083996;28;20481;-82
2022/07/04 01:52:10;;;;;;;7.38;3.88;;;;;;;14.04;76.10;101212.16;5082246;28;20071;-82
2022/07/04 01:54:38;;;;;;;6.53;3.28;;;;;;;14.10;76.23;101215.94;5082182;28;20048;-81
2022/07/04 01:57:06;;;;;;;7.07;3.80;;;;;;;14.01;76.62;101209.84;5082397;28;20045;-81
2022/07/04 02:02:19;;;;;;;6.15;3.70;;;;;;;14.05;77.02;101213.81;5049078;28;20131;-81
2022/07/04 02:04:46;;;;;;;5.57;3.80;;;;;;;14.05;77.07;101218.25;5082929;28;20053;-80
2022/07/04 02:07:13;;;;;;;11.98;3.90;;;;;;;13.99;77.30;101218.91;5083193;28;20044;-80
2022/07/04 02:09:41;;;;;;;4.45;3.25;;;;;;;13.89;77.36;101229.56;5083130;28;20086;-81
2022/07/04 02:14:52;;;;;;;4.70;3.90;;;;;;;13.95;77.91;101228.94;5084541;28;20105;-80
2022/07/04 02:17:21;;;;;;;12.65;3.83;;;;;;;13.95;78.03;101234.19;5082067;28;20090;-81
2022/07/04 02:19:48;;;;;;;7.78;3.55;;;;;;;13.84;77.97;101230.06;5081573;28;20076;-81
2022/07/04 02:22:16;;;;;;;8.20;3.63;;;;;;;13.72;78.53;101233.16;5081433;28;20053;-81
2022/07/04 02:24:44;;;;;;;4.43;3.40;;;;;;;13.67;79.03;101232.84;5080754;28;20049;-80
2022/07/04 02:27:10;;;;;;;10.43;5.18;;;;;;;13.64;79.36;101239.25;5078559;28;20075;-80
2022/07/04 02:29:37;;;;;;;6.40;3.65;;;;;;;13.63;79.01;101229.72;5080832;28;20087;-81
2022/07/04 02:32:05;;;;;;;7.88;3.83;;;;;;;13.62;79.23;101225.44;5082438;28;20068;-80
2022/07/04 02:34:32;;;;;;;4.75;3.70;;;;;;;13.64;79.34;101228.72;5083357;28;20048;-81
2022/07/04 02:36:58;;;;;;;7.18;3.90;;;;;;;13.63;79.32;101239.41;5079225;28;20185;-80
2022/07/04 02:39:25;;;;;;;7.63;3.67;;;;;;;13.67;79.62;101235.47;5078018;28;20052;-80
2022/07/04 02:41:53;;;;;;;9.10;4.07;;;;;;;13.64;79.64;101241.06;5076758;28;20473;-78
2022/07/04 02:44:20;;;;;;;5.30;3.67;;;;;;;13.60;80.07;101233.50;5079626;28;20163;-80
2022/07/04 02:46:46;;;;;;;6.00;3.72;;;;;;;13.57;79.79;101244.31;5080366;28;20063;-80
2022/07/04 02:49:13;;;;;;;9.30;3.90;;;;;;;13.59;79.63;101244.16;5080965;28;20079;-82
2022/07/04 02:51:40;;;;;;;7.70;3.80;;;;;;;13.65;79.41;101238.28;5081198;28;20068;-81
2022/07/04 02:54:06;;;;;;;8.82;4.13;;;;;;;13.71;79.31;101237.59;5080356;28;20080;-81
2022/07/04 02:56:33;;;;;;;5.10;3.67;;;;;;;13.68;79.56;101245.00;5080360;28;20048;-80
2022/07/04 02:59:01;;;;;;;4.95;3.60;;;;;;;13.61;79.71;101245.66;5083218;28;20112;-81
2022/07/04 03:01:28;;;;;;;5.85;3.78;;;;;;;13.61;79.95;101257.97;5083915;28;20084;-81
2022/07/04 03:03:54;;;;;;;8.82;4.13;;;;;;;13.59;80.02;101255.50;5084419;28;20076;-80
2022/07/04 03:06:21;;;;;;;10.75;4.30;;;;;;;13.55;80.04;101251.56;5083400;28;20072;-80
2022/07/04 03:08:48;;;;;;;10.65;4.13;;;;;;;13.56;80.37;101263.72;5082878;28;20088;-80
2022/07/04 03:11:14;;;;;;;7.40;4.30;;;;;;;13.57;79.91;101262.72;5083480;28;20091;-84
2022/07/04 03:13:41;;;;;;;10.65;4.55;;;;;;;13.44;80.15;101264.16;5084446;28;20080;-82
2022/07/04 03:16:10;;;;;;;9.85;4.22;;;;;;;13.41;80.90;101278.44;5083874;28;20097;-82
2022/07/04 03:18:36;;;;;;;7.55;4.13;;;;;;;13.41;80.93;101278.44;5083821;28;20044;-81
2022/07/04 03:21:04;;;;;;;7.82;4.13;;;;;;;13.41;80.61;101286.34;5083718;28;20087;-81
2022/07/04 03:23:31;;;;;;;8.52;4.10;;;;;;;13.39;81.32;101277.78;5083600;28;20396;-84
2022/07/04 03:25:58;;;;;;;9.18;4.07;;;;;;;13.38;81.45;101284.00;5081495;28;20520;-79
2022/07/04 03:28:24;;;;;;;10.18;4.30;;;;;;;13.37;81.70;101281.53;5077034;28;20131;-79
2022/07/04 03:30:51;;;;;;;12.40;4.05;;;;;;;13.37;82.02;101290.25;5077398;28;20128;-79
2022/07/04 03:33:20;;;;;;;8.20;5.00;;;;;;;13.31;82.33;101290.88;5080925;28;20482;-82
2022/07/04 03:35:46;;;;;;;9.75;4.57;;;;;;;13.30;82.00;101283.97;5083029;28;20073;-83
2022/07/04 03:38:13;;;;;;;10.90;4.40;;;;;;;13.39;81.88;101297.97;5082687;28;20049;-81
2022/07/04 03:40:40;;;;;;;9.00;4.60;;;;;;;13.41;81.86;101299.47;5083437;28;20044;-80
2022/07/04 03:43:06;;;;;;;12.05;4.45;;;;;;;13.44;81.58;101298.34;5083215;28;20044;-82
2022/07/04 03:45:33;;;;;;;10.25;4.68;;;;;;;13.46;81.40;101297.19;5083183;28;20048;-80
2022/07/04 03:48:02;;;;;;;7.43;4.50;;;;;;;13.43;81.51;101297.50;5081518;28;20068;-80
2022/07/04 03:50:30;;;;;;;13.32;5.35;;;;;;;13.41;81.69;101302.09;5081153;28;20048;-83
2022/07/04 03:52:56;;;;;;;8.20;4.70;;;;;;;13.35;81.93;101300.09;5081339;28;20127;-79
2022/07/04 03:55:23;;;;;;;10.60;4.45;;;;;;;13.38;82.09;101298.97;5080808;28;20056;-83
2022/07/04 03:57:49;;;;;;;8.32;4.35;;;;;;;13.44;82.10;101303.59;5081030;28;20113;-79
2022/07/04 04:00:17;;;;;;;8.55;4.70;;;;;;;13.50;81.92;101302.97;5080659;28;20084;-80
2022/07/04 04:02:43;;;;;;;10.52;4.70;;;;;;;13.63;81.63;101302.53;5080220;28;20049;-82
2022/07/04 04:05:27;;;;;;;8.02;4.28;;;;;;;13.73;80.72;101295.28;5079199;28;20048;-80
2022/07/04 04:07:57;;;;;;;8.93;4.32;;;;;;;14.24;80.06;101307.41;5077833;28;20049;-80
2022/07/04 04:10:24;;;;;;;10.88;4.40;;;;;;;15.13;76.01;101322.31;5079795;28;20052;-79
2022/07/04 04:12:51;;;;;;;7.15;3.70;;;;;;;15.96;72.45;101320.03;5079389;28;20047;-80
2022/07/04 04:15:17;;;;;;;11.93;4.15;;;;;;;16.89;68.80;101320.63;5079268;28;20087;-80
2022/07/04 04:17:44;;;;;;;9.73;3.88;;;;;;;17.41;66.15;101321.56;5080901;28;20045;-82
2022/07/04 04:20:11;;;;;;;7.85;3.72;;;;;;;17.99;63.82;101306.56;5080203;28;20052;-81
2022/07/04 04:22:38;;;;;;;9.35;3.60;;;;;;;18.13;63.53;101306.50;5081302;28;20075;-82
2022/07/04 04:25:07;;;;;;;8.40;3.88;;;;;;;18.39;62.68;101307.78;5081180;28;20045;-82
2022/07/04 04:27:34;;;;;;;12.05;4.25;;;;;;;18.90;60.43;101317.13;5081269;28;20076;-82
2022/07/04 04:30:00;;;;;;;13.25;4.13;;;;;;;18.97;60.00;101319.84;5081051;28;20048;-82
2022/07/04 04:32:27;;;;;;;10.20;4.28;;;;;;;18.70;61.06;101316.19;5080277;28;20132;-81
2022/07/04 04:34:54;;;;;;;7.18;3.75;;;;;;;18.38;61.96;101311.44;5081020;28;20052;-81
2022/07/04 04:37:20;;;;;;;8.05;4.00;;;;;;;17.84;63.52;101309.28;5080248;28;20060;-81
2022/07/04 04:39:47;;;;;;;8.95;4.22;;;;;;;17.64;64.94;101318.75;5081701;28;20087;-81
2022/07/04 04:42:15;;;;;;;7.25;3.97;;;;;;;17.80;64.91;101313.28;5081465;28;20155;-79
2022/07/04 04:44:44;;;;;;;8.68;4.50;;;;;;;17.86;64.56;101326.59;5081352;28;20072;-81
2022/07/04 04:47:11;;;;;;;9.27;4.50;;;;;;;18.33;63.50;101332.38;5081035;28;20594;-82
2022/07/04 04:49:38;;;;;;;8.75;3.75;;;;;;;19.12;60.68;101325.03;5081855;28;20436;-82
2022/07/04 04:52:05;;;;;;;8.68;3.85;;;;;;;19.32;59.93;101333.94;5082445;28;20542;-82
2022/07/04 04:54:32;;;;;;;7.95;4.07;;;;;;;18.96;60.74;101312.06;5080955;28;20802;-82
2022/07/04 04:56:59;;;;;;;8.30;3.92;;;;;;;19.01;60.79;101320.28;5081143;28;20147;-82
2022/07/04 04:59:27;;;;;;;7.65;3.80;;;;;;;19.17;60.40;101314.66;5081518;28;20056;-83
2022/07/04 05:01:54;;;;;;;8.93;3.90;;;;;;;19.78;58.74;101325.38;5082754;28;20064;-82
2022/07/04 05:04:23;;;;;;;7.93;4.13;;;;;;;19.63;59.41;101325.53;5087879;28;20100;-85
2022/07/04 05:06:50;;;;;;;8.73;4.00;;;;;;;20.02;58.42;101324.00;5086432;28;20052;-82
2022/07/04 05:09:17;;;;;;;9.43;4.00;;;;;;;20.08;57.93;101316.03;5085509;28;20689;-82
2022/07/04 05:11:44;;;;;;;9.60;3.95;;;;;;;20.06;58.59;101320.75;5083597;28;20135;-81
2022/07/04 05:14:10;;;;;;;7.65;3.78;;;;;;;19.99;58.88;101322.56;5084509;28;20048;-81
2022/07/04 05:16:43;;;;;;;6.18;3.72;;;;;;;19.70;59.26;101323.72;5082133;28;20082;-80
2022/07/04 05:19:10;;;;;;;8.50;3.80;;;;;;;19.93;58.92;101311.91;5080862;28;20053;-81
2022/07/04 05:21:37;;;;;;;6.57;3.78;;;;;;;20.04;59.16;101309.50;5080966;28;20075;-80
2022/07/04 05:24:04;;;;;;;7.60;3.78;;;;;;;21.04;56.40;101326.28;5080809;28;20150;-82
2022/07/04 05:26:31;;;;;;;9.18;3.78;;;;;;;21.77;53.62;101313.53;5079040;28;20100;-80
2022/07/04 05:28:58;;;;;;;8.68;3.83;;;;;;;22.39;52.67;101317.28;5079908;28;20076;-82
2022/07/04 05:31:25;;;;;;;5.95;3.50;;;;;;;22.98;51.27;101313.28;5082111;28;20052;-83
2022/07/04 05:33:54;;;;;;;9.88;3.55;;;;;;;23.63;48.52;101322.38;5120798;22;20047;-81
2022/07/04 05:36:22;;;;;;;7.72;3.40;;;;;;;23.61;48.74;101329.03;5123585;28;20069;-82
2022/07/04 05:38:49;;;;;;;8.98;3.58;;;;;;;24.09;47.54;101337.00;5125495;28;20040;-83
2022/07/04 05:41:15;;;;;;;5.78;3.53;;;;;;;24.69;46.88;101337.69;5125161;28;20075;-82
2022/07/04 05:43:42;;;;;;;7.93;3.47;;;;;;;24.93;46.31;101333.16;5113475;28;20074;-82
2022/07/04 05:46:09;;;;;;;7.00;3.92;;;;;;;25.39;46.62;101336.84;5101891;28;20079;-81
2022/07/04 05:48:36;;;;;;;10.77;3.80;;;;;;;25.52;44.45;101322.38;5102413;28;20071;-83
2022/07/04 05:51:05;;;;;;;7.35;3.45;;;;;;;25.94;43.39;101334.44;5102239;28;20044;-81
2022/07/04 05:53:32;;;;;;;6.05;2.97;;;;;;;25.34;44.33;101328.69;5102215;28;20044;-82
2022/07/04 05:55:59;;;;;;;6.07;3.13;;;;;;;24.72;46.01;101331.88;5102222;28;20063;-81
2022/07/04 05:58:26;;;;;;;7.00;3.42;;;;;;;25.53;44.05;101340.03;5100024;28;20052;-80
2022/07/04 06:00:53;;;;;;;5.20;3.58;;;;;;;25.68;43.62;101335.00;5102352;28;20531;-80
2022/07/04 06:03:20;;;;;;;8.68;3.47;;;;;;;25.75;43.74;101338.38;5099838;28;20048;-81
2022/07/04 06:05:46;;;;;;;9.73;2.70;;;;;;;25.74;43.48;101339.41;5099819;28;20048;-82
2022/07/04 06:08:14;;;;;;;6.32;3.08;;;;;;;25.94;42.11;101328.28;5099232;28;20075;-80
2022/07/04 06:10:41;;;;;;;8.63;3.35;;;;;;;26.54;40.45;101331.16;5098984;28;20048;-81
2022/07/04 06:13:08;;;;;;;6.15;3.30;;;;;;;26.95;40.73;101331.75;5099674;28;20078;-82
2022/07/04 06:15:37;;;;;;;7.55;3.40;;;;;;;26.65;40.35;101316.84;5097957;28;20071;-82
2022/07/04 06:18:05;;;;;;;5.50;3.20;;;;;;;27.10;40.14;101315.88;5099637;28;20102;-79
2022/07/04 06:20:52;;;;;;;6.70;3.40;;;;;;;27.46;38.24;101316.31;5098949;28;20455;-80
2022/07/04 06:23:20;;;;;;;5.75;3.20;;;;;;;26.37;39.71;101295.50;5101855;28;20404;-80
2022/07/04 06:25:47;;;;;;;8.07;3.35;;;;;;;26.85;40.06;101312.84;5100039;28;20120;-80
2022/07/04 06:28:14;;;;;;;7.47;3.40;;;;;;;27.18;38.79;101317.34;5099683;28;20048;-82
2022/07/04 06:30:40;;;;;;;7.70;2.95;;;;;;;27.23;38.44;101310.16;5099552;28;20498;-78
2022/07/04 06:33:07;;;;;;;3.95;2.90;;;;;;;26.99;38.83;101311.44;5104706;28;20077;-81
2022/07/04 06:35:45;;;;;;;6.10;3.03;;;;;;;26.86;40.23;101303.72;5104399;28;20051;-81
2022/07/04 06:38:12;;;;;;;3.25;2.80;;;;;;;27.47;37.33;101318.75;5104718;28;20052;-80
2022/07/04 06:40:41;;;;;;;4.97;2.90;;;;;;;27.34;38.36;101321.84;5104980;28;20055;-79
2022/07/04 06:43:09;;;;;;;5.90;2.33;;;;;;;27.65;38.31;101323.00;5105106;28;20048;-82
2022/07/04 06:45:37;;;;;;;5.22;2.33;;;;;;;28.39;35.81;101326.69;5103539;28;20048;-81
2022/07/04 06:48:05;;;;;;;4.07;2.20;;;;;;;27.82;35.50;101326.44;5103025;28;20516;-81
2022/07/04 06:50:33;;;;;;;2.72;2.38;;;;;;;27.81;35.44;101327.50;5103969;28;20073;-81
2022/07/04 06:53:00;;;;;;;8.55;2.85;;;;;;;27.86;36.01;101313.28;5104922;28;20067;-81
2022/07/04 06:55:39;;;;;;;7.18;2.40;;;;;;;27.62;34.44;101313.56;5104355;28;20076;-82
2022/07/04 06:58:09;;;;;;;3.97;2.03;;;;;;;27.90;33.42;101314.38;5103871;28;20056;-80
2022/07/04 07:00:36;;;;;;;5.28;1.90;;;;;;;28.02;32.48;101313.16;5102918;28;20302;-83
2022/07/04 07:03:04;;;;;;;3.30;1.83;;;;;;;28.24;32.86;101315.81;5103236;28;20075;-80
2022/07/04 07:05:31;;;;;;;3.15;1.75;;;;;;;27.79;34.21;101310.81;5100334;28;20094;-83
2022/07/04 07:07:58;;;;;;;3.38;1.80;;;;;;;28.77;31.60;101329.38;5100826;28;20463;-82
2022/07/04 07:10:24;;;;;;;5.72;2.28;;;;;;;27.48;33.67;101315.00;5101705;28;20052;-84
2022/07/04 07:12:51;;;;;;;3.10;1.50;;;;;;;28.09;32.28;101318.34;5102332;28;20181;-81
2022/07/04 07:15:20;;;;;;;5.93;1.88;;;;;;;27.32;33.86;101303.28;5102643;28;20075;-82
2022/07/04 07:17:46;;;;;;;2.55;1.80;;;;;;;27.44;33.50;101308.50;5102366;28;20044;-82
2022/07/04 07:20:14;;;;;;;4.50;1.42;;;;;;;27.65;33.07;101304.19;5101688;28;20115;-80
2022/07/04 07:22:41;;;;;;;3.38;1.35;;;;;;;28.61;31.47;101305.03;5100911;28;20141;-81
2022/07/04 07:25:09;;;;;;;4.80;1.90;;;;;;;28.55;30.89;101299.88;5101527;28;20054;-81
2022/07/04 07:27:36;;;;;;;3.15;1.60;;;;;;;28.97;31.47;101316.03;5101633;28;20132;-82
2022/07/04 07:30:03;;;;;;;1.65;1.40;;;;;;;28.28;30.51;101311.53;5101784;28;20052;-83
2022/07/04 07:32:31;;;;;;;4.72;1.50;;;;;;;28.15;30.68;101293.09;5101507;28;20108;-81
2022/07/04 07:34:59;;;;;;;1.98;1.42;;;;;;;28.20;30.85;101305.78;5102763;28;20165;-82
2022/07/04 07:37:26;;;;;;;1.35;1.20;;;;;;;28.25;30.19;101300.47;5101487;28;20047;-83
2022/07/04 07:39:53;;;;;;;3.00;1.38;;;;;;;27.59;31.47;101297.13;5099904;28;20044;-81
2022/07/04 07:42:20;;;;;;;2.17;1.33;;;;;;;28.71;30.56;101310.50;5101532;28;20076;-81
2022/07/04 07:44:47;;;;;;;3.25;1.73;;;;;;;28.07;30.71;101310.50;5100784;28;20079;-81
2022/07/04 07:47:15;;;;;;;2.13;1.38;;;;;;;28.33;30.21;101302.69;5103146;28;20051;-82
2022/07/04 07:49:43;;;;;;;2.38;1.05;;;;;;;28.60;29.50;101313.38;5102213;28;20068;-81
2022/07/04 07:52:09;;;;;;;4.97;1.65;;;;;;;28.95;29.21;101300.13;5101763;28;20117;-81
2022/07/04 07:54:36;;;;;;;3.47;1.50;;;;;;;28.64;29.47;101312.59;5100635;28;20048;-79
2022/07/04 07:57:04;;;;;;;6.28;2.25;;;;;;;28.61;30.83;101318.50;5101320;28;20048;-81
2022/07/04 07:59:30;;;;;;;3.75;1.85;;;;;;;28.37;30.75;101299.19;5102068;28;20090;-80
2022/07/04 08:01:57;;;;;;;6.57;2.15;;;;;;;27.60;32.49;101296.88;5101601;28;20044;-80
2022/07/04 08:04:35;;;;;;;4.22;2.00;;;;;;;27.61;31.66;101298.50;5100843;28;20097;-81
2022/07/04 08:07:04;;;;;;;4.30;2.60;;;;;;;28.24;29.67;101304.25;5101783;28;20074;-81
2022/07/04 08:09:32;;;;;;;5.38;1.85;;;;;;;28.04;31.45;101300.25;5103695;28;20048;-79
2022/07/04 08:12:00;;;;;;;2.40;1.77;;;;;;;28.46;30.79;101296.84;5109418;28;20052;-80
2022/07/04 08:14:27;;;;;;;5.90;3.13;;;;;;;27.91;32.00;101297.16;5104554;28;20055;-81
2022/07/04 08:16:54;;;;;;;3.63;1.70;;;;;;;27.78;32.06;101295.72;5102789;28;20115;-79
2022/07/04 08:19:21;;;;;;;2.97;1.90;;;;;;;27.56;31.45;101303.00;5101837;28;20055;-82
2022/07/04 08:21:47;;;;;;;6.50;2.60;;;;;;;27.68;32.46;101306.38;5101075;28;20058;-82
2022/07/04 08:24:16;;;;;;;4.05;2.25;;;;;;;27.56;32.38;101308.38;5101142;28;20078;-81
2022/07/04 08:26:43;;;;;;;7.05;2.72;;;;;;;28.37;32.48;101314.53;5100386;28;20097;-81
2022/07/04 08:29:19;;;;;;;4.13;2.70;;;;;;;28.24;32.57;101309.63;5101506;28;20278;-82
2022/07/04 08:31:46;;;;;;;5.05;2.47;;;;;;;28.34;33.63;101317.78;5102323;28;20052;-82
2022/07/04 08:34:12;;;;;;;5.40;2.50;;;;;;;28.38;32.18;101310.78;5102931;28;20086;-82
2022/07/04 08:36:39;;;;;;;8.75;3.38;;;;;;;27.95;34.36;101307.16;5103885;28;20066;-81
2022/07/04 08:39:06;;;;;;;5.55;2.80;;;;;;;27.98;33.50;101300.47;5103363;28;20055;-82
2022/07/04 08:41:38;;;;;;;8.20;2.72;;;;;;;27.85;34.83;101298.22;5103735;28;20532;-82
2022/07/04 08:44:06;;;;;;;4.85;2.42;;;;;;;27.33;36.35;101299.53;5103435;28;20546;-82
2022/07/04 08:46:36;;;;;;;9.05;2.95;;;;;;;26.95;35.14;101289.59;5101965;28;20120;-82
2022/07/04 08:49:09;;;;;;;4.60;2.45;;;;;;;27.39;35.59;101295.84;5103097;28;20044;-82
2022/07/04 08:51:43;;;;;;;6.65;2.63;;;;;;;26.56;34.48;101288.78;5104310;28;20066;-82
2022/07/04 08:59:37;;;;;;;4.75;2.33;;;;;;;27.83;33.00;101303.84;5100893;28;20070;-83
2022/07/04 09:02:04;;;;;;;6.20;2.58;;;;;;;28.26;33.56;101296.72;5100408;28;20423;-81
2022/07/04 09:04:31;;;;;;;5.75;2.30;;;;;;;27.88;31.65;101295.84;5099050;28;20424;-81
2022/07/04 09:06:58;;;;;;;5.20;2.55;;;;;;;27.83;32.38;101309.22;5098864;28;20123;-82
2022/07/04 09:09:27;;;;;;;5.75;2.65;;;;;;;28.38;32.31;101321.53;5099202;28;20078;-81
2022/07/04 09:11:55;;;;;;;7.53;2.63;;;;;;;28.34;32.78;101309.69;5101123;28;20048;-82
2022/07/04 09:14:21;;;;;;;4.63;1.98;;;;;;;28.42;31.70;101317.28;5100533;28;20472;-82
2022/07/04 09:16:51;;;;;;;7.15;2.83;;;;;;;27.49;33.64;101319.31;5099171;28;20086;-80
2022/07/04 09:19:21;;;;;;;5.57;2.70;;;;;;;26.74;34.05;101307.31;5097293;28;20105;-79
2022/07/04 09:21:49;;;;;;;4.20;1.98;;;;;;;27.39;33.43;101308.47;5113628;28;20062;-80
2022/07/04 09:24:16;;;;;;;8.20;2.55;;;;;;;27.35;33.38;101302.78;5112930;28;20028;-79
2022/07/04 09:26:46;;;;;;;5.22;2.28;;;;;;;27.20;34.15;101299.09;5116742;28;20039;-80
2022/07/04 09:29:14;;;;;;;6.68;2.55;;;;;;;27.17;33.68;101294.22;5112318;28;20048;-82
2022/07/04 09:31:41;;;;;;;5.72;2.85;;;;;;;27.20;33.71;101337.50;5107659;28;20059;-81
2022/07/04 09:34:09;;;;;;;6.15;2.50;;;;;;;25.82;35.46;101328.31;5104376;28;20048;-82
2022/07/04 09:36:40;;;;;;;5.28;2.20;;;;;;;26.60;34.88;101324.00;5103052;28;20108;-82
2022/07/04 09:39:15;;;;;;;5.50;2.70;;;;;;;27.60;34.07;101325.66;5106773;28;20072;-81
2022/07/04 09:41:56;;;;;;;7.22;2.70;;;;;;;27.84;33.70;101323.50;5107451;28;20349;-82
2022/07/04 09:44:26;;;;;;;3.45;2.20;;;;;;;27.90;32.51;101327.81;5106854;28;20040;-82
2022/07/04 09:46:53;;;;;;;6.65;2.40;;;;;;;27.25;33.64;101316.09;5106832;28;20079;-82
2022/07/04 09:49:20;;;;;;;9.52;2.28;;;;;;;28.07;33.42;101326.66;5106898;28;20058;-82
2022/07/04 09:51:50;;;;;;;4.38;2.63;;;;;;;28.04;33.13;101319.09;5105226;28;20056;-79
2022/07/04 09:54:21;;;;;;;9.27;2.70;;;;;;;27.89;34.20;101320.81;5104180;28;20052;-80
2022/07/04 09:56:52;;;;;;;5.22;2.35;;;;;;;27.83;33.67;101316.50;5103321;28;20082;-81
2022/07/04 09:59:19;;;;;;;7.53;2.45;;;;;;;27.90;33.59;101323.25;5102643;28;20052;-82
2022/07/04 10:01:48;;;;;;;5.45;2.00;;;;;;;27.66;33.65;101324.63;5102458;28;20052;-82
2022/07/04 10:04:15;;;;;;;6.03;2.35;;;;;;;26.09;35.85;101318.59;5103617;28;20040;-81
2022/07/04 10:06:44;;;;;;;6.03;2.78;;;;;;;26.62;34.94;101313.84;5099682;28;20048;-80
2022/07/04 10:09:13;;;;;;;5.22;2.67;;;;;;;26.24;35.18;101311.88;5099917;28;20048;-81
2022/07/04 10:11:44;;;;;;;5.60;2.13;;;;;;;25.87;35.96;101306.97;5098580;28;20075;-81
2022/07/04 10:14:13;;;;;;;4.72;2.42;;;;;;;26.42;35.01;101300.94;5099062;28;20132;-81
2022/07/04 10:16:41;;;;;;;3.85;2.28;;;;;;;26.26;34.31;101299.84;5100778;28;20091;-81
2022/07/04 10:19:12;;;;;;;4.40;2.25;;;;;;;26.40;34.97;101295.81;5100511;28;20063;-81
2022/07/04 10:21:39;;;;;;;4.18;1.77;;;;;;;26.00;36.12;101306.66;5098982;28;20054;-80
2022/07/04 10:24:06;;;;;;;4.10;2.17;;;;;;;25.50;36.89;101305.72;5101789;28;20074;-80
2022/07/04 10:26:34;;;;;;;6.75;2.70;;;;;;;25.83;37.72;101288.91;5101509;28;20052;-81
2022/07/04 10:29:00;;;;;;;6.57;2.75;;;;;;;26.30;36.29;101294.81;5102601;28;20071;-81
2022/07/04 10:31:29;;;;;;;6.35;2.42;;;;;;;25.64;37.76;101296.34;5102344;28;20056;-81
2022/07/04 10:33:58;;;;;;;3.97;2.33;;;;;;;25.28;38.04;101287.59;5103133;28;20048;-82
2022/07/04 10:36:29;;;;;;;9.20;3.30;;;;;;;25.78;38.54;101284.28;5101239;28;20044;-81
2022/07/04 10:38:58;;;;;;;5.57;2.35;;;;;;;25.26;38.14;101284.34;5103531;28;20048;-81
2022/07/04 10:41:26;;;;;;;9.93;2.53;;;;;;;25.71;37.35;101280.94;5103582;28;20067;-81
2022/07/04 10:44:06;;;;;;;5.72;2.90;;;;;;;26.38;37.07;101289.06;5102361;28;20082;-82
2022/07/04 10:46:38;;;;;;;9.27;2.88;;;;;;;25.83;36.24;101289.72;5102163;28;20052;-81
2022/07/04 10:49:08;;;;;;;5.25;2.45;;;;;;;26.20;35.92;101274.00;5103886;28;20059;-80
2022/07/04 10:51:42;;;;;;;6.43;2.25;;;;;;;26.09;35.18;101281.06;5102913;28;20059;-80
2022/07/04 10:54:12;;;;;;;3.85;2.40;;;;;;;25.89;37.07;101278.03;5103341;28;20108;-80
2022/07/04 10:56:45;;;;;;;4.78;2.75;;;;;;;26.26;36.08;101266.84;5101621;28;20052;-80
2022/07/04 10:59:20;;;;;;;6.93;2.65;;;;;;;26.71;36.92;101261.38;5102712;28;20112;-81
2022/07/04 11:01:49;;;;;;;9.02;2.42;;;;;;;26.66;35.45;101262.09;5108204;28;20457;-80
2022/07/04 11:04:51;;;;;;;5.40;2.70;;;;;;;26.62;34.44;101260.97;5108013;28;20082;-80
2022/07/04 11:07:20;;;;;;;4.18;2.38;;;;;;;26.03;36.17;101268.63;5107914;28;20218;-80
2022/07/04 11:10:07;;;;;;;6.97;2.72;;;;;;;26.12;35.75;101256.44;5104190;28;20479;-81
2022/07/04 11:12:51;;;;;;;3.80;2.30;;;;;;;26.16;35.55;101250.59;5099247;28;20083;-81
2022/07/04 11:15:18;;;;;;;5.03;2.53;;;;;;;26.53;34.87;101249.03;5100544;28;20083;-81
2022/07/04 11:17:45;;;;;;;6.18;2.80;;;;;;;26.75;34.02;101247.19;5102341;28;20048;-81
2022/07/04 11:20:12;;;;;;;8.80;2.70;;;;;;;26.74;34.62;101245.56;5106861;28;20080;-82
2022/07/04 11:22:41;;;;;;;5.05;2.53;;;;;;;27.04;34.36;101244.34;5105127;28;20416;-82
2022/07/04 11:25:11;;;;;;;5.60;2.65;;;;;;;26.80;35.10;101251.00;5105948;28;20055;-82
2022/07/04 11:27:38;;;;;;;6.30;2.50;;;;;;;26.53;36.16;101245.53;5105369;28;20064;-82
2022/07/04 11:30:05;;;;;;;3.80;2.42;;;;;;;26.61;35.72;101243.25;5104074;28;20044;-82
2022/07/04 11:32:34;;;;;;;6.28;2.08;;;;;;;26.60;35.25;101251.53;5103809;28;20047;-82
2022/07/04 11:35:01;;;;;;;2.72;2.17;;;;;;;26.40;34.68;101244.03;5134839;22;20584;-82
2022/07/04 11:37:28;;;;;;;4.50;2.20;;;;;;;25.84;36.31;101243.09;5086713;28;20527;-82
2022/07/04 11:45:02;;;;;;;4.18;2.30;;;;;;;25.39;37.74;101246.56;5083262;28;20056;-82